Latest Weather Observations for Norseman Airport

IDW60801

Issued at 7:53 am WST Monday 18 February 2019 (issued every 10 minutes, with the page automatically refreshed every 10 minutes)

About weather observations | Map of weather stations | Latest weather observations for WA | Other Formats
Station Details ID: 012009 Name: NORSEMAN AERO Lat: -32.21 Lon: 121.75 Height: 262.5 m
Data from the previous 72 hours. | See also: Recent months at Norseman Airport
Date/Time
WST
Temp
°C
App
Temp
°C
Dew
Point
°C
Rel
Hum
%
Delta-T
°C
Wind Press
QNH
hPa
Press
MSL
hPa
Rain since
9am
mm
Dir  Spd
km/h
Gust
km/h
Spd
kts
Gust
kts
18/07:30am 15.4 12.9 9.7 69 3.0 ESE 13 17 7 9 1018.8 1017.6 0.0
18/07:00am 14.8 12.3 9.6 71 2.7 E 13 19 7 10 1018.7 1017.5 0.0
18/06:30am 14.8 12.7 9.8 72 2.6 SE 11 15 6 8 1018.4 1017.2 0.0
18/06:00am 14.5 12.4 9.7 73 2.5 ESE 11 15 6 8 1018.1 1016.9 0.0
18/05:30am 14.5 12.4 9.7 73 2.5 ESE 11 15 6 8 1018.0 1016.8 0.0
18/05:00am 14.4 12.3 9.6 73 2.5 ESE 11 15 6 8 1017.9 1016.6 0.0
18/04:30am 14.4 12.3 9.6 73 2.5 ESE 11 19 6 10 1017.8 1016.5 0.0
18/04:00am 14.3 12.2 9.7 74 2.4 ESE 11 19 6 10 1017.6 1016.3 0.0
18/03:30am 14.1 12.4 9.7 75 2.3 ESE 9 15 5 8 1017.5 1016.2 0.0
18/03:00am 13.5 12.1 9.6 77 2.0 SE 7 11 4 6 1017.5 1016.2 0.0
18/02:30am 13.5 11.4 9.6 77 2.0 SSE 11 15 6 8 1017.8 1016.5 0.0
18/02:00am 13.6 11.4 9.5 76 2.1 SSE 11 15 6 8 1017.7 1016.4 0.0
18/01:30am 13.8 11.6 9.5 75 2.2 SSE 11 17 6 9 1017.6 1016.3 0.0
18/01:00am 14.2 12.1 9.6 74 2.4 SSE 11 15 6 8 1017.9 1016.6 0.0
18/12:30am 14.5 12.3 9.5 72 2.6 SSE 11 17 6 9 1018.1 1016.9 0.0
18/12:00am 14.9 12.3 9.5 70 2.8 SSE 13 19 7 10 1018.2 1017.0 0.0
 
Date/Time
WST
Temp
°C
App
Temp
°C
Dew
Point
°C
Rel
Hum
%
Delta-T
°C
Wind Press
QNH
hPa
Press
MSL
hPa
Rain since
9am
mm
Dir  Spd
km/h
Gust
km/h
Spd
kts
Gust
kts
17/11:30pm 15.4 12.8 9.5 68 3.1 SSE 13 20 7 11 1018.4 1017.2 0.0
17/11:00pm 16.0 13.1 9.7 66 3.3 SE 15 24 8 13 1018.4 1017.2 0.0
17/10:30pm 16.6 12.8 9.8 64 3.6 SSE 20 32 11 17 1018.3 1017.1 0.0
17/10:00pm 17.6 14.6 9.2 58 4.4 SE 15 20 8 11 1018.2 1017.0 0.0
17/09:30pm 18.4 14.7 9.5 56 4.7 SSE 19 28 10 15 1018.1 1016.9 0.0
17/09:00pm 19.2 14.9 9.4 53 5.2 SSE 22 33 12 18 1017.9 1016.6 0.0
17/08:30pm 20.1 15.4 9.4 50 5.8 SSE 24 33 13 18 1017.5 1016.2 0.0
17/08:00pm 21.0 16.2 8.9 46 6.5 SSE 24 33 13 18 1016.9 1015.6 0.0
17/07:30pm 22.6 18.2 7.6 38 7.9 SE 20 33 11 18 1016.4 1015.1 0.0
17/07:00pm 23.7 19.3 7.3 35 8.7 SSE 20 33 11 18 1015.8 1014.5 0.0
17/06:30pm 24.6 19.4 7.3 33 9.2 SSE 24 33 13 18 1015.3 1014.0 0.0
17/06:00pm 25.6 20.4 7.2 31 9.8 S 24 33 13 18 1014.8 1013.6 0.0
17/05:30pm 26.6 21.7 7.1 29 10.4 S 22 33 12 18 1014.6 1013.4 0.0
17/05:00pm 26.5 21.2 7.0 29 10.4 S 24 33 13 18 1014.5 1013.2 0.0
17/04:30pm 27.1 22.6 7.0 28 10.8 S 20 32 11 17 1014.4 1013.1 0.0
17/04:00pm 27.3 22.0 6.7 27 11.0 S 24 41 13 22 1014.3 1013.0 0.0
17/03:30pm 27.5 23.0 6.8 27 11.1 S 20 32 11 17 1014.5 1013.2 0.0
17/03:00pm 27.5 23.4 7.9 29 10.7 S 19 32 10 17 1014.8 1013.6 0.0
17/02:30pm 26.6 22.7 7.1 29 10.4 SSE 17 26 9 14 1015.2 1013.9 0.0
17/02:00pm 26.1 21.8 7.7 31 9.9 S 20 32 11 17 1015.7 1014.4 0.0
17/01:30pm 25.8 22.5 7.9 32 9.7 SSE 15 28 8 15 1016.2 1014.9 0.0
17/01:00pm 24.7 20.7 8.2 35 8.9 SSE 19 30 10 16 1016.6 1015.3 0.0
17/12:30pm 23.6 19.5 8.5 38 8.1 S 20 30 11 16 1016.9 1015.6 0.0
17/12:00pm 22.2 18.6 8.3 41 7.4 S 17 28 9 15 1017.4 1016.1 0.0
17/11:30am 21.6 17.5 8.8 44 6.9 S 20 32 11 17 1018.0 1016.8 0.0
17/11:00am 20.9 17.1 9.2 47 6.3 SSE 19 33 10 18 1018.3 1017.1 0.0
17/10:30am 19.9 16.5 9.2 50 5.7 S 17 26 9 14 1018.8 1017.6 0.0
17/10:00am 20.5 16.6 9.4 49 6.0 S 20 32 11 17 1019.2 1017.9 0.0
17/09:30am 19.4 17.0 9.9 54 5.1 SE 13 26 7 14 1019.4 1018.1 0.0
17/09:00am 18.1 14.5 9.7 58 4.5 SSE 19 28 10 15 1019.5 1018.2 0.0
17/08:30am 16.9 13.3 9.8 63 3.8 SSE 19 26 10 14 1019.6 1018.3 0.0
17/08:00am 16.4 13.2 9.8 65 3.5 SSE 17 26 9 14 1019.5 1018.2 0.0
17/07:30am 16.5 13.1 10.4 67 3.3 SSE 19 26 10 14 1019.5 1018.2 0.0
17/07:00am 15.8 12.1 10.1 69 3.0 SSE 20 28 11 15 1019.5 1018.2 0.0
17/06:30am 15.9 13.2 10.4 70 2.9 SSE 15 26 8 14 1018.9 1017.7 0.0
17/06:00am 15.9 12.5 10.4 70 2.9 SSE 19 26 10 14 1018.9 1017.7 0.0
17/05:30am 16.1 12.8 10.8 71 2.9 SSE 19 28 10 15 1018.5 1017.3 0.0
17/05:00am 16.3 13.5 11.5 73 2.6 S 17 26 9 14 1018.3 1017.1 0.0
17/04:30am 16.2 13.5 11.8 75 2.4 S 17 30 9 16 1018.2 1017.0 0.0
17/04:00am 16.4 13.4 12.4 77 2.2 S 20 35 11 19 1018.3 1017.1 0.0
17/03:30am 16.3 14.2 12.5 78 2.1 SSE 15 24 8 13 1018.2 1017.0 0.0
17/03:00am 16.0 13.9 13.7 86 1.3 SSE 17 26 9 14 1018.2 1017.0 0.0
17/02:30am 15.4 12.8 14.8 96 0.3 SSE 22 37 12 20 1018.2 1017.0 0.0
17/02:00am 17.0 13.9 13.5 80 2.0 S 22 37 12 20 1018.2 1017.0 0.0
17/01:30am 17.2 14.3 13.9 81 1.9 SSE 22 35 12 19 1018.0 1016.8 0.0
17/01:00am 18.0 15.0 13.7 76 2.5 S 22 32 12 17 1017.9 1016.6 0.0
17/12:30am 18.3 14.2 12.7 70 3.2 SSE 26 39 14 21 1017.9 1016.6 0.0
17/12:00am 18.7 16.0 12.9 69 3.3 S 19 30 10 16 1018.2 1017.0 0.0
 
Date/Time
WST
Temp
°C
App
Temp
°C
Dew
Point
°C
Rel
Hum
%
Delta-T
°C
Wind Press
QNH
hPa
Press
MSL
hPa
Rain since
9am
mm
Dir  Spd
km/h
Gust
km/h
Spd
kts
Gust
kts
16/11:30pm 18.6 14.9 12.6 68 3.4 S 24 35 13 19 1018.7 1017.5 0.0
16/11:00pm 18.4 15.4 12.6 69 3.3 SSE 20 30 11 16 1018.9 1017.7 0.0
16/10:30pm 17.9 15.8 12.4 70 3.1 SSE 15 20 8 11 1019.0 1017.8 0.0
16/10:00pm 18.2 16.1 12.4 69 3.3 SSE 15 22 8 12 1019.2 1017.9 0.0
16/09:30pm 18.6 16.2 12.6 68 3.4 S 17 24 9 13 1019.2 1017.9 0.0
16/09:00pm 19.3 16.2 12.3 64 3.9 S 20 32 11 17 1019.2 1017.9 0.0
16/08:30pm 19.6 16.6 12.4 63 4.1 S 20 32 11 17 1018.7 1017.5 0.0
16/08:00pm 19.9 16.9 11.9 60 4.5 S 19 30 10 16 1018.3 1017.1 0.0
16/07:30pm 20.3 16.6 11.5 57 4.9 S 22 39 12 21 1017.9 1016.6 0.0
16/07:00pm 21.2 17.2 11.8 55 5.3 S 24 35 13 19 1017.3 1016.0 0.0
16/06:30pm 22.2 17.3 11.3 50 6.1 S 28 39 15 21 1016.8 1015.5 0.0
16/06:00pm 23.5 18.6 12.5 50 6.4 S 30 43 16 23 1016.2 1014.9 0.0
16/05:30pm 24.3 19.4 12.6 48 6.8 S 30 41 16 22 1016.1 1014.8 0.0
16/05:02pm 26.5 21.2 12.5 41 8.2 S 32 50 17 27 1015.7 1014.4 0.0
16/05:00pm 25.9 20.4 12.4 43 7.9 S 33 50 18 27 1015.6 1014.3 0.0
16/04:30pm 26.9 22.1 12.9 42 8.3 SSE 30 50 16 27 1015.2 1013.9 0.0
16/04:20pm 28.2 23.8 12.9 38 9.1 S 28 46 15 25 1015.0 1013.8 0.0
16/04:00pm 27.9 23.0 12.7 39 9.0 S 30 46 16 25 1015.2 1013.9 0.0
16/03:30pm 30.0 25.1 12.4 34 10.5 S 30 44 16 24 1014.9 1013.7 0.0
16/03:00pm 29.4 23.7 11.9 34 10.3 S 33 46 18 25 1014.8 1013.6 0.0
16/02:30pm 30.4 25.0 12.3 33 10.7 SSE 32 43 17 23 1014.7 1013.5 0.0
16/02:00pm 30.3 26.4 12.2 33 10.7 S 24 35 13 19 1014.9 1013.7 0.0
16/01:30pm 30.8 26.2 12.2 32 11.0 S 28 39 15 21 1015.3 1014.0 0.0
16/01:00pm 30.1 25.8 12.1 33 10.6 SSW 26 43 14 23 1015.4 1014.1 0.0
16/12:30pm 29.7 25.6 12.6 35 10.2 S 26 39 14 21 1015.8 1014.5 0.0
16/12:00pm 28.8 24.8 13.1 38 9.4 S 26 35 14 19 1016.0 1014.7 0.0
16/11:30am 26.6 22.7 13.3 43 7.9 SSW 26 39 14 21 1016.4 1015.1 0.0
16/11:00am 25.5 21.8 14.0 49 6.9 SSW 26 39 14 21 1016.8 1015.5 0.0
16/10:30am 25.6 21.9 13.8 48 7.0 SSW 26 37 14 20 1017.0 1015.7 0.0
16/10:00am 24.1 21.9 14.8 56 5.6 S 20 30 11 16 1017.3 1016.0 0.0
16/09:30am 23.3 20.0 15.1 60 4.9 SSW 26 39 14 21 1017.4 1016.1 0.0
16/09:00am 22.0 18.7 14.9 64 4.2 SSW 26 37 14 20 1017.3 1016.0 0.0
16/08:30am 21.3 17.7 15.2 68 3.7 SSW 28 37 15 20 1017.4 1016.1 0.0
16/08:00am 20.2 16.6 15.2 73 3.0 SSW 28 35 15 19 1017.3 1016.0 0.0
16/07:30am 19.7 16.8 15.1 75 2.7 SSW 24 37 13 20 1017.2 1015.9 0.0
16/07:00am 19.4 17.0 15.5 78 2.3 S 22 33 12 18 1016.9 1015.6 0.0
16/06:30am 19.2 17.8 15.5 79 2.2 S 17 28 9 15 1016.7 1015.4 0.0
16/06:00am 19.0 16.7 15.7 81 2.0 SSW 22 32 12 17 1016.5 1015.2 0.0
16/05:30am 18.8 16.9 15.7 82 1.9 S 20 32 11 17 1016.1 1014.8 0.0
16/05:00am 18.8 17.5 15.9 83 1.7 S 17 24 9 13 1015.7 1014.4 0.0
16/04:30am 18.7 16.4 15.8 83 1.7 SSW 22 39 12 21 1015.6 1014.3 0.0
16/04:00am 18.7 16.5 15.9 84 1.7 SSW 22 32 12 17 1015.4 1014.1 0.0
16/03:30am 18.8 16.8 16.4 86 1.5 SSW 22 37 12 20 1015.2 1013.9 0.0
16/03:00am 18.8 17.3 16.8 88 1.2 SSW 20 32 11 17 1015.0 1013.8 0.0
16/02:30am 18.8 18.2 16.6 87 1.3 SW 15 20 8 11 1014.8 1013.6 0.0
16/02:00am 19.1 18.5 16.7 86 1.5 SSW 15 24 8 13 1014.6 1013.4 0.0
16/01:30am 19.4 17.8 16.6 84 1.7 SSW 20 32 11 17 1014.7 1013.5 0.0
16/01:00am 19.7 18.2 16.7 83 1.8 SSW 20 28 11 15 1014.9 1013.7 0.0
16/12:30am 20.1 18.7 16.5 80 2.2 SSW 19 28 10 15 1014.8 1013.6 0.0
16/12:00am 20.7 19.1 16.1 75 2.8 SSW 19 26 10 14 1014.7 1013.5 0.0
 
Date/Time
WST
Temp
°C
App
Temp
°C
Dew
Point
°C
Rel
Hum
%
Delta-T
°C
Wind Press
QNH
hPa
Press
MSL
hPa
Rain since
9am
mm
Dir  Spd
km/h
Gust
km/h
Spd
kts
Gust
kts
15/11:30pm 21.5 20.1 15.6 69 3.6 S 17 28 9 15 1015.0 1013.8 0.0
15/11:00pm 22.5 19.6 15.1 63 4.4 SSW 24 39 13 21 1014.6 1013.4 0.0
15/10:30pm 24.1 19.6 13.9 53 6.1 SSW 30 43 16 23 1014.5 1013.2 0.0
15/10:00pm 26.4 23.1 12.8 43 8.0 SSW 22 30 12 16 1014.5 1013.2 0.0
15/09:30pm 27.6 24.6 12.0 38 9.1 S 19 28 10 15 1014.7 1013.5 0.0
15/09:00pm 29.0 25.1 12.0 35 10.0 SSW 24 41 13 22 1014.1 1012.8 0.0
15/08:30pm 30.4 26.5 10.9 30 11.3 SSW 22 35 12 19 1013.8 1012.5 0.0
15/08:00pm 31.4 27.2 11.2 29 11.8 S 24 35 13 19 1013.3 1012.0 0.0
15/07:30pm 32.2 26.7 11.9 29 12.1 S 32 46 17 25 1012.7 1011.4 0.0
15/07:21pm 32.6 27.8 11.7 28 12.4 SSW 28 46 15 25 1012.7 1011.4 0.0
15/07:00pm 34.0 29.4 11.2 25 13.5 SSW 26 39 14 21 1011.9 1010.6 0.0
15/06:53pm 34.1 32.3 9.4 22 14.2 SSW 9 39 5 21 1011.7 1010.4 0.0
15/06:30pm 35.2 32.9 5.6 16 16.2 ESE 7 9 4 5 1011.3 1010.0 0.0
15/06:00pm 35.9 32.7 5.2 15 16.8 SE 11 13 6 7 1010.9 1009.6 0.0
15/05:30pm 36.9 34.1 5.0 14 17.4 S 9 13 5 7 1010.9 1009.6 0.0
15/05:00pm 37.3 33.6 4.3 13 17.9 SSW 13 15 7 8 1010.9 1009.6 0.0
15/04:30pm 38.2 36.1 3.8 12 18.6 SSW 4 7 2 4 1010.9 1009.6 0.0
15/04:00pm 38.8 36.4 4.3 12 18.8 N 6 19 3 10 1010.9 1009.6 0.0
15/03:30pm 38.9 34.8 4.4 12 18.9 NNE 15 20 8 11 1011.0 1009.7 0.0
15/03:00pm 39.0 34.0 4.4 12 18.9 NNE 20 30 11 16 1011.3 1010.0 0.0
15/02:30pm 39.0 32.7 5.6 13 18.6 NNE 28 39 15 21 1011.7 1010.4 0.0
15/02:00pm 38.5 33.5 6.3 14 18.1 N 22 41 12 22 1012.1 1010.8 0.0
15/01:30pm 38.6 32.1 6.3 14 18.1 NNE 30 44 16 24 1012.3 1011.0 0.0
15/01:00pm 37.5 32.7 5.5 14 17.7 N 20 33 11 18 1012.9 1011.6 0.0
15/12:30pm 37.6 32.4 5.6 14 17.7 NNE 22 35 12 19 1013.5 1012.2 0.0
15/12:00pm 36.8 31.3 5.9 15 17.1 N 24 41 13 22 1013.9 1012.6 0.0
15/11:30am 36.2 30.2 5.5 15 16.8 N 26 41 14 22 1014.3 1013.0 0.0
15/11:00am 35.1 29.1 5.5 16 16.1 N 26 37 14 20 1014.8 1013.6 0.0
15/10:30am 34.9 27.8 5.4 16 16.1 N 32 43 17 23 1015.3 1014.0 0.0
15/10:00am 33.7 26.6 5.3 17 15.3 N 32 41 17 22 1015.7 1014.4 0.0
15/09:30am 32.6 27.9 6.0 19 14.4 N 20 30 11 16 1016.0 1014.7 0.0
15/09:00am 31.7 26.8 6.7 21 13.6 NNE 22 30 12 16 1016.0 1014.7 0.0
15/08:30am 30.8 25.6 5.3 20 13.6 NNE 22 33 12 18 1016.1 1014.8 0.0
15/08:00am 28.7 25.5 6.7 25 11.8 NE 13 17 7 9 1016.1 1014.8 0.0

Other Formats:

Comma delimited format used in spreadsheet applications
http://www.bom.gov.au/fwo/IDW60801/IDW60801.95642.axf

JavaScript Object Notation format (JSON) in row-major order
http://www.bom.gov.au/fwo/IDW60801/IDW60801.95642.json